createdAt,value
2019-05-19T00:00:54.368Z,14.09
2019-05-19T00:01:54.367Z,13.97
2019-05-19T00:02:54.385Z,13.96
2019-05-19T00:03:54.335Z,13.90
2019-05-19T00:04:54.321Z,13.88
2019-05-19T00:05:54.313Z,13.76
2019-05-19T00:06:54.303Z,13.83
2019-05-19T00:07:54.327Z,13.82
2019-05-19T00:08:54.279Z,13.82
2019-05-19T00:09:54.278Z,13.86
2019-05-19T00:10:54.267Z,13.86
2019-05-19T00:11:54.245Z,13.86
2019-05-19T00:12:54.249Z,13.88
2019-05-19T00:13:54.241Z,13.91
2019-05-19T00:14:54.214Z,13.91
2019-05-19T00:15:54.200Z,13.76
2019-05-19T00:16:54.191Z,13.88
2019-05-19T00:17:54.179Z,13.88
2019-05-19T00:18:54.168Z,13.78
2019-05-19T00:19:54.157Z,13.83
2019-05-19T00:20:54.148Z,13.98
2019-05-19T00:21:54.131Z,13.90
2019-05-19T00:22:54.119Z,13.88
2019-05-19T00:23:54.109Z,13.88
2019-05-19T00:24:54.105Z,13.80
2019-05-19T00:25:54.085Z,13.93
2019-05-19T00:26:54.080Z,13.90
2019-05-19T00:27:54.078Z,13.94
2019-05-19T00:28:54.059Z,13.82
2019-05-19T00:29:54.046Z,13.76
2019-05-19T00:30:54.043Z,13.80
2019-05-19T00:31:54.023Z,13.73
2019-05-19T00:32:54.011Z,13.82
2019-05-19T00:33:54.008Z,13.83
2019-05-19T00:34:53.986Z,13.94
2019-05-19T00:35:53.977Z,13.96
2019-05-19T00:36:53.968Z,14.01
2019-05-19T00:37:53.966Z,14.08
2019-05-19T00:38:53.951Z,14.15
2019-05-19T00:39:53.941Z,14.11
2019-05-19T00:40:53.936Z,14.15
2019-05-19T00:41:53.911Z,14.13
2019-05-19T00:42:53.905Z,14.05
2019-05-19T00:43:53.889Z,14.09
2019-05-19T00:44:53.879Z,14.03
2019-05-19T00:45:53.870Z,14.11
2019-05-19T00:46:53.854Z,14.19
2019-05-19T00:47:53.846Z,14.05
2019-05-19T00:48:53.835Z,14.15
2019-05-19T00:49:53.823Z,14.09
2019-05-19T00:50:53.832Z,14.08
2019-05-19T00:51:53.805Z,14.01
2019-05-19T00:52:53.797Z,14.04
2019-05-19T00:53:53.774Z,13.98
2019-05-19T00:54:53.768Z,13.90
2019-05-19T00:55:53.755Z,13.83
2019-05-19T00:56:53.743Z,13.82
2019-05-19T00:57:53.735Z,13.82
2019-05-19T00:58:53.717Z,13.86
2019-05-19T00:59:53.707Z,13.79
2019-05-19T01:00:53.699Z,13.75
2019-05-19T01:01:53.689Z,13.73
2019-05-19T01:02:53.683Z,13.68
2019-05-19T01:03:53.669Z,13.67
2019-05-19T01:04:53.651Z,13.76
2019-05-19T01:05:53.646Z,13.83
2019-05-19T01:06:53.639Z,13.82
2019-05-19T01:07:53.624Z,13.78
2019-05-19T01:08:53.612Z,13.79
2019-05-19T01:09:53.609Z,13.83
2019-05-19T01:10:53.593Z,13.82
2019-05-19T01:11:53.585Z,13.83
2019-05-19T01:12:53.563Z,13.80
2019-05-19T01:13:53.579Z,13.82
2019-05-19T01:14:53.543Z,13.76
2019-05-19T01:15:53.538Z,13.75
2019-05-19T01:16:53.518Z,13.75
2019-05-19T01:17:53.511Z,13.72
2019-05-19T01:18:53.502Z,13.86
2019-05-19T01:19:55.944Z,13.83
2019-05-19T01:20:53.480Z,13.80
2019-05-19T01:21:53.463Z,13.75
2019-05-19T01:22:53.453Z,13.82
2019-05-19T01:23:53.464Z,13.67
2019-05-19T01:24:53.425Z,13.65
2019-05-19T01:25:53.419Z,13.83
2019-05-19T01:26:53.409Z,13.73
2019-05-19T01:27:53.402Z,13.75
2019-05-19T01:28:53.385Z,13.83
2019-05-19T01:29:53.370Z,13.79
2019-05-19T01:30:53.365Z,13.83
2019-05-19T01:31:53.350Z,13.82
2019-05-19T01:32:53.339Z,13.78
2019-05-19T01:33:53.334Z,13.80
2019-05-19T01:34:53.325Z,13.80
2019-05-19T01:35:53.319Z,13.85
2019-05-19T01:36:53.300Z,13.83
2019-05-19T01:37:53.292Z,13.75
2019-05-19T01:38:53.274Z,13.78
2019-05-19T01:39:53.265Z,13.83
2019-05-19T01:40:53.259Z,13.90
2019-05-19T01:41:53.241Z,13.86
2019-05-19T01:42:53.259Z,13.90
2019-05-19T01:43:53.221Z,13.88
2019-05-19T01:44:53.238Z,13.82
2019-05-19T01:45:53.196Z,13.83
2019-05-19T01:46:53.305Z,13.82
2019-05-19T01:47:53.174Z,13.78
2019-05-19T01:48:53.162Z,13.80
2019-05-19T01:49:53.159Z,13.67
2019-05-19T01:50:53.144Z,13.75
2019-05-19T01:51:53.127Z,13.72
2019-05-19T01:52:53.127Z,13.73
2019-05-19T01:53:53.108Z,13.67
2019-05-19T01:54:53.121Z,13.68
2019-05-19T01:55:53.083Z,13.72
2019-05-19T01:56:53.074Z,13.67
2019-05-19T01:57:53.074Z,13.78
2019-05-19T01:58:53.048Z,13.80
2019-05-19T01:59:53.043Z,13.79
2019-05-19T02:00:53.034Z,13.80
2019-05-19T02:01:53.020Z,13.75
2019-05-19T02:02:53.004Z,13.79
2019-05-19T02:03:52.992Z,13.76
2019-05-19T02:04:52.983Z,13.76
2019-05-19T02:05:53.013Z,13.67
2019-05-19T02:06:52.960Z,13.61
2019-05-19T02:07:52.948Z,13.55
2019-05-19T02:08:52.962Z,13.58
2019-05-19T02:09:52.929Z,13.47
2019-05-19T02:10:52.920Z,13.45
2019-05-19T02:11:52.909Z,13.39
2019-05-19T02:12:52.894Z,13.39
2019-05-19T02:13:52.885Z,13.38
2019-05-19T02:14:52.877Z,13.38
2019-05-19T02:15:52.863Z,13.39
2019-05-19T02:16:52.851Z,13.46
2019-05-19T02:17:52.836Z,13.42
2019-05-19T02:18:52.834Z,13.40
2019-05-19T02:19:52.827Z,13.43
2019-05-19T02:20:52.805Z,13.40
2019-05-19T02:21:52.798Z,13.32
2019-05-19T02:22:52.783Z,13.39
2019-05-19T02:23:52.770Z,13.38
2019-05-19T02:24:52.762Z,13.40
2019-05-19T02:25:52.762Z,13.36
2019-05-19T02:26:52.740Z,13.40
2019-05-19T02:27:52.727Z,13.38
2019-05-19T02:28:52.714Z,13.38
2019-05-19T02:29:52.705Z,13.39
2019-05-19T02:30:52.693Z,13.39
2019-05-19T02:31:52.687Z,13.38
2019-05-19T02:32:52.676Z,13.36
2019-05-19T02:33:52.680Z,13.36
2019-05-19T02:34:52.667Z,13.45
2019-05-19T02:35:52.649Z,13.40
2019-05-19T02:36:52.626Z,13.35
2019-05-19T02:37:52.616Z,13.35
2019-05-19T02:38:52.603Z,13.42
2019-05-19T02:39:52.587Z,13.42
2019-05-19T02:40:52.588Z,13.46
2019-05-19T02:41:52.586Z,13.43
2019-05-19T02:42:52.583Z,13.43
2019-05-19T02:43:52.548Z,13.39
2019-05-19T02:44:52.534Z,13.43
2019-05-19T02:45:52.525Z,13.38
2019-05-19T02:46:52.514Z,13.45
2019-05-19T02:47:52.501Z,13.35
2019-05-19T02:48:52.499Z,13.40
2019-05-19T02:49:52.484Z,13.42
2019-05-19T02:50:53.068Z,13.38
2019-05-19T02:51:52.458Z,13.43
2019-05-19T02:52:52.484Z,13.39
2019-05-19T02:53:52.431Z,13.35
2019-05-19T02:54:52.422Z,13.39
2019-05-19T02:55:52.413Z,13.42
2019-05-19T02:56:52.401Z,13.39
2019-05-19T02:57:52.394Z,13.42
2019-05-19T02:58:52.377Z,13.43
2019-05-19T02:59:52.370Z,13.38
2019-05-19T03:00:52.357Z,13.42
2019-05-19T03:01:52.355Z,13.45
2019-05-19T03:02:52.340Z,13.43
2019-05-19T03:03:52.329Z,13.43
2019-05-19T03:04:52.321Z,13.47
2019-05-19T03:05:52.303Z,13.51
2019-05-19T03:06:52.287Z,13.42
2019-05-19T03:07:52.281Z,13.45
2019-05-19T03:08:52.287Z,13.45
2019-05-19T03:09:52.265Z,13.39
2019-05-19T03:10:52.248Z,13.39
2019-05-19T03:11:52.236Z,13.45
2019-05-19T03:12:52.230Z,13.39
2019-05-19T03:13:52.215Z,13.32
2019-05-19T03:14:52.202Z,13.38
2019-05-19T03:15:52.193Z,13.36
2019-05-19T03:16:52.180Z,13.42
2019-05-19T03:17:52.165Z,13.42
2019-05-19T03:18:52.159Z,13.43
2019-05-19T03:19:52.147Z,13.40
2019-05-19T03:21:09.413Z,13.43
2019-05-19T03:21:53.122Z,13.42
2019-05-19T03:22:52.114Z,13.42
2019-05-19T03:23:52.102Z,13.42
2019-05-19T03:24:52.090Z,13.39
2019-05-19T03:25:52.082Z,13.43
2019-05-19T03:26:52.066Z,13.39
2019-05-19T03:27:52.065Z,13.42
2019-05-19T03:28:52.056Z,13.39
2019-05-19T03:29:52.039Z,13.36
2019-05-19T03:30:52.049Z,13.38
2019-05-19T03:31:52.022Z,13.38
2019-05-19T03:32:52.003Z,13.42
2019-05-19T03:33:51.991Z,13.40
2019-05-19T03:34:51.977Z,13.35
2019-05-19T03:35:51.976Z,13.39
2019-05-19T03:36:51.955Z,13.49
2019-05-19T03:37:51.947Z,13.38
2019-05-19T03:38:51.937Z,13.40
2019-05-19T03:39:51.934Z,13.42
2019-05-19T03:40:51.913Z,13.39
2019-05-19T03:41:51.905Z,13.35
2019-05-19T03:42:51.890Z,13.43
2019-05-19T03:43:51.875Z,13.40
2019-05-19T03:44:51.864Z,13.39
2019-05-19T03:45:51.851Z,13.40
2019-05-19T03:46:51.842Z,13.39
2019-05-19T03:47:51.835Z,13.35
2019-05-19T03:48:51.822Z,13.38
2019-05-19T03:49:51.813Z,13.38
2019-05-19T03:50:51.805Z,13.29
2019-05-19T03:51:51.795Z,13.29
2019-05-19T03:52:51.781Z,13.30
2019-05-19T03:53:51.773Z,13.35
2019-05-19T03:54:51.756Z,13.29
2019-05-19T03:55:51.757Z,13.36
2019-05-19T03:56:51.733Z,13.27
2019-05-19T03:57:51.725Z,13.29
2019-05-19T03:58:51.709Z,13.38
2019-05-19T03:59:51.709Z,13.32
2019-05-19T04:00:51.688Z,13.38
2019-05-19T04:01:51.680Z,13.36
2019-05-19T04:02:51.667Z,13.27
2019-05-19T04:03:51.651Z,13.29
2019-05-19T04:04:51.646Z,13.39
2019-05-19T04:05:51.636Z,13.35
2019-05-19T04:06:51.625Z,13.46
2019-05-19T04:07:51.606Z,13.30
2019-05-19T04:08:51.598Z,13.38
2019-05-19T04:09:51.588Z,13.38
2019-05-19T04:10:51.578Z,13.29
2019-05-19T04:11:51.562Z,13.24
2019-05-19T04:12:51.553Z,13.39
2019-05-19T04:13:51.541Z,13.24
2019-05-19T04:14:51.532Z,13.39
2019-05-19T04:15:51.516Z,13.32
2019-05-19T04:16:51.516Z,13.30
2019-05-19T04:17:51.496Z,13.36
2019-05-19T04:18:51.492Z,13.30
2019-05-19T04:19:51.478Z,13.40
2019-05-19T04:20:51.463Z,13.29
2019-05-19T04:21:51.451Z,13.39
2019-05-19T04:22:51.454Z,13.29
2019-05-19T04:23:51.430Z,13.26
2019-05-19T04:24:51.420Z,13.36
2019-05-19T04:25:51.407Z,13.26
2019-05-19T04:26:51.402Z,13.29
2019-05-19T04:27:51.383Z,13.36
2019-05-19T04:28:51.380Z,13.35
2019-05-19T04:29:51.364Z,13.27
2019-05-19T04:30:51.354Z,13.24
2019-05-19T04:31:51.353Z,13.24
2019-05-19T04:32:51.332Z,13.23
2019-05-19T04:33:51.319Z,13.32
2019-05-19T04:34:51.314Z,13.26
2019-05-19T04:35:51.302Z,13.32
2019-05-19T04:36:51.293Z,13.23
2019-05-19T04:37:51.275Z,13.21
2019-05-19T04:38:51.259Z,13.27
2019-05-19T04:39:51.251Z,13.23
2019-05-19T04:40:51.241Z,13.24
2019-05-19T04:41:51.234Z,13.21
2019-05-19T04:42:51.217Z,13.29
2019-05-19T04:43:51.210Z,13.29
2019-05-19T04:44:51.249Z,13.26
2019-05-19T04:45:51.186Z,13.16
2019-05-19T04:46:51.176Z,13.26
2019-05-19T04:47:51.165Z,13.17
2019-05-19T04:48:51.148Z,13.27
2019-05-19T04:49:51.183Z,13.29
2019-05-19T04:50:51.154Z,13.35
2019-05-19T04:52:05.515Z,13.27
2019-05-19T04:52:52.103Z,13.26
2019-05-19T04:53:51.093Z,13.36
2019-05-19T04:54:51.084Z,13.36
2019-05-19T04:55:51.071Z,13.43
2019-05-19T04:56:51.065Z,13.38
2019-05-19T04:57:51.048Z,13.36
2019-05-19T04:58:51.036Z,13.38
2019-05-19T04:59:51.056Z,13.29
2019-05-19T05:00:51.019Z,13.39
2019-05-19T05:01:51.009Z,13.38
2019-05-19T05:02:50.994Z,13.38
2019-05-19T05:03:50.982Z,13.23
2019-05-19T05:04:50.970Z,13.43
2019-05-19T05:05:50.960Z,13.35
2019-05-19T05:06:50.952Z,13.35
2019-05-19T05:07:50.939Z,13.40
2019-05-19T05:08:50.928Z,13.38
2019-05-19T05:09:50.917Z,13.39
2019-05-19T05:10:50.945Z,13.46
2019-05-19T05:11:50.895Z,13.42
2019-05-19T05:12:50.885Z,13.38
2019-05-19T05:13:50.873Z,13.40
2019-05-19T05:14:50.862Z,13.45
2019-05-19T05:15:50.847Z,13.43
2019-05-19T05:16:50.837Z,13.43
2019-05-19T05:17:50.826Z,13.43
2019-05-19T05:18:50.819Z,13.54
2019-05-19T05:19:50.810Z,13.46
2019-05-19T05:20:50.809Z,13.43
2019-05-19T05:21:50.787Z,13.51
2019-05-19T05:22:50.770Z,13.40
2019-05-19T05:23:50.761Z,13.45
2019-05-19T05:24:50.760Z,13.47
2019-05-19T05:25:50.744Z,13.53
2019-05-19T05:26:50.735Z,13.63
2019-05-19T05:27:50.716Z,13.64
2019-05-19T05:28:50.706Z,13.67
2019-05-19T05:29:50.695Z,13.68
2019-05-19T05:30:50.693Z,13.73
2019-05-19T05:31:50.677Z,13.90
2019-05-19T05:32:50.662Z,13.88
2019-05-19T05:33:50.655Z,13.85
2019-05-19T05:34:50.640Z,13.85
2019-05-19T05:35:50.628Z,13.93
2019-05-19T05:36:50.616Z,13.96
2019-05-19T05:37:50.604Z,14.01
2019-05-19T05:38:50.606Z,13.94
2019-05-19T05:39:50.586Z,13.94
2019-05-19T05:40:50.572Z,13.86
2019-05-19T05:41:50.563Z,14.00
2019-05-19T05:42:50.562Z,14.01
2019-05-19T05:43:50.541Z,13.93
2019-05-19T05:44:50.529Z,14.09
2019-05-19T05:45:50.513Z,13.97
2019-05-19T05:46:50.504Z,13.91
2019-05-19T05:47:50.507Z,14.05
2019-05-19T05:48:50.535Z,14.09
2019-05-19T05:49:50.476Z,14.01
2019-05-19T05:50:50.468Z,14.12
2019-05-19T05:51:50.458Z,14.12
2019-05-19T05:52:50.440Z,14.03
2019-05-19T05:53:50.424Z,14.13
2019-05-19T05:54:50.415Z,14.09
2019-05-19T05:55:50.404Z,13.96
2019-05-19T05:56:50.398Z,13.90
2019-05-19T05:57:50.383Z,13.94
2019-05-19T05:58:50.375Z,13.98
2019-05-19T05:59:50.362Z,14.12
2019-05-19T06:00:50.351Z,14.15
2019-05-19T06:01:50.337Z,14.23
2019-05-19T06:02:50.330Z,14.16
2019-05-19T06:03:50.314Z,14.26
2019-05-19T06:04:50.317Z,14.22
2019-05-19T06:05:50.298Z,14.18
2019-05-19T06:06:50.289Z,14.16
2019-05-19T06:07:50.273Z,14.15
2019-05-19T06:08:50.265Z,14.13
2019-05-19T06:09:50.256Z,14.19
2019-05-19T06:10:50.245Z,14.27
2019-05-19T06:11:50.227Z,14.16
2019-05-19T06:12:50.213Z,14.16
2019-05-19T06:13:50.213Z,14.08
2019-05-19T06:14:50.195Z,14.16
2019-05-19T06:15:50.186Z,14.12
2019-05-19T06:16:50.179Z,14.13
2019-05-19T06:17:50.175Z,14.15
2019-05-19T06:18:50.155Z,14.09
2019-05-19T06:19:50.149Z,14.13
2019-05-19T06:20:50.132Z,14.09
2019-05-19T06:21:50.116Z,14.15
2019-05-19T06:22:56.700Z,14.08
2019-05-19T06:23:51.099Z,14.18
2019-05-19T06:24:50.087Z,14.28
2019-05-19T06:25:50.073Z,14.26
2019-05-19T06:26:50.071Z,14.34
2019-05-19T06:27:50.054Z,14.36
2019-05-19T06:28:50.042Z,14.45
2019-05-19T06:29:50.080Z,14.55
2019-05-19T06:30:50.025Z,14.66
2019-05-19T06:31:50.048Z,14.64
2019-05-19T06:32:50.003Z,14.78
2019-05-19T06:33:49.990Z,14.67
2019-05-19T06:34:49.995Z,14.71
2019-05-19T06:35:49.968Z,14.86
2019-05-19T06:36:49.950Z,15.07
2019-05-19T06:37:49.950Z,15.07
2019-05-19T06:39:07.761Z,15.04
2019-05-19T06:40:07.639Z,15.19
2019-05-19T06:41:38.209Z,15.38
2019-05-19T06:42:38.177Z,15.47
2019-05-19T06:44:10.744Z,15.54
2019-05-19T06:45:08.717Z,15.36
2019-05-19T06:46:08.713Z,15.44
2019-05-19T06:47:08.706Z,15.48
2019-05-19T06:48:08.698Z,15.40
2019-05-19T06:49:08.677Z,15.33
2019-05-19T06:50:08.681Z,15.30
2019-05-19T06:51:08.654Z,15.19
2019-05-19T06:52:08.642Z,15.17
2019-05-19T06:53:14.219Z,15.12
2019-05-19T06:54:09.636Z,15.15
2019-05-19T06:55:08.615Z,15.22
2019-05-19T06:56:08.604Z,15.15
2019-05-19T06:57:08.599Z,15.11
2019-05-19T06:58:08.590Z,14.95
2019-05-19T06:59:08.567Z,14.89
2019-05-19T07:00:08.565Z,14.87
2019-05-19T07:01:08.548Z,14.73
2019-05-19T07:02:08.539Z,14.66
2019-05-19T07:03:08.559Z,14.56
2019-05-19T07:04:08.523Z,14.55
2019-05-19T07:05:08.500Z,14.46
2019-05-19T07:06:08.489Z,14.36
2019-05-19T07:07:08.578Z,14.34
2019-05-19T07:08:08.477Z,14.21
2019-05-19T07:09:08.713Z,14.34
2019-05-19T07:10:08.466Z,14.34
2019-05-19T07:11:08.434Z,14.30
2019-05-19T07:12:08.422Z,14.12
2019-05-19T07:13:08.408Z,14.18
2019-05-19T07:14:08.401Z,14.08
2019-05-19T07:15:08.401Z,14.12
2019-05-19T07:16:08.388Z,14.12
2019-05-19T07:17:08.363Z,14.13
2019-05-19T07:18:08.357Z,14.09
2019-05-19T07:19:08.342Z,14.19
2019-05-19T07:20:08.348Z,14.34
2019-05-19T07:21:08.324Z,14.41
2019-05-19T07:22:08.302Z,14.45
2019-05-19T07:23:08.287Z,14.64
2019-05-19T07:24:08.288Z,14.90
2019-05-19T07:25:08.269Z,14.97
2019-05-19T07:26:08.259Z,15.15
2019-05-19T07:27:08.257Z,15.33
2019-05-19T07:28:08.244Z,15.30
2019-05-19T07:29:08.238Z,15.14
2019-05-19T07:30:08.217Z,15.08
2019-05-19T07:31:08.246Z,14.96
2019-05-19T07:32:08.218Z,14.99
2019-05-19T07:33:08.194Z,14.96
2019-05-19T07:34:08.183Z,15.01
2019-05-19T07:35:08.168Z,15.17
2019-05-19T07:36:08.152Z,15.15
2019-05-19T07:37:08.141Z,15.14
2019-05-19T07:38:08.131Z,14.93
2019-05-19T07:39:08.129Z,14.77
2019-05-19T07:40:08.105Z,14.77
2019-05-19T07:41:08.113Z,14.82
2019-05-19T07:42:08.108Z,14.87
2019-05-19T07:43:08.076Z,14.89
2019-05-19T07:44:08.075Z,14.67
2019-05-19T07:45:08.081Z,14.55
2019-05-19T07:46:08.065Z,14.45
2019-05-19T07:47:08.036Z,14.51
2019-05-19T07:48:08.020Z,14.46
2019-05-19T07:49:08.009Z,14.53
2019-05-19T07:50:07.996Z,14.49
2019-05-19T07:51:08.005Z,14.51
2019-05-19T07:52:07.987Z,14.49
2019-05-19T07:53:07.972Z,14.48
2019-05-19T07:54:07.960Z,14.52
2019-05-19T07:55:07.946Z,14.61
2019-05-19T07:56:07.927Z,14.69
2019-05-19T07:57:07.919Z,14.66
2019-05-19T07:58:07.925Z,14.74
2019-05-19T07:59:08.180Z,14.85
2019-05-19T08:00:08.160Z,14.83
2019-05-19T08:01:07.877Z,14.97
2019-05-19T08:02:07.860Z,15.08
2019-05-19T08:03:07.885Z,14.86
2019-05-19T08:04:07.874Z,14.89
2019-05-19T08:05:07.839Z,14.85
2019-05-19T08:06:07.883Z,14.77
2019-05-19T08:07:07.830Z,14.78
2019-05-19T08:08:07.806Z,14.71
2019-05-19T08:09:07.789Z,14.63
2019-05-19T08:10:07.783Z,14.56
2019-05-19T08:11:07.790Z,14.34
2019-05-19T08:12:07.754Z,14.23
2019-05-19T08:13:07.738Z,14.19
2019-05-19T08:14:07.743Z,14.22
2019-05-19T08:15:07.727Z,14.18
2019-05-19T08:16:07.729Z,13.93
2019-05-19T08:17:07.710Z,13.93
2019-05-19T08:18:07.689Z,13.88
2019-05-19T08:19:07.671Z,13.98
2019-05-19T08:20:07.664Z,13.96
2019-05-19T08:21:07.670Z,14.09
2019-05-19T08:22:07.643Z,14.19
2019-05-19T08:23:07.646Z,14.19
2019-05-19T08:24:07.617Z,14.26
2019-05-19T08:25:07.595Z,14.27
2019-05-19T08:26:07.588Z,14.28
2019-05-19T08:27:07.594Z,14.45
2019-05-19T08:28:08.971Z,14.51
2019-05-19T08:29:07.571Z,14.56
2019-05-19T08:30:07.553Z,14.66
2019-05-19T08:31:07.545Z,14.74
2019-05-19T08:32:07.528Z,14.67
2019-05-19T08:33:07.522Z,14.67
2019-05-19T08:34:07.794Z,14.83
2019-05-19T08:35:07.514Z,15.03
2019-05-19T08:36:07.490Z,15.08
2019-05-19T08:37:07.473Z,15.19
2019-05-19T08:38:07.455Z,15.19
2019-05-19T08:39:07.451Z,15.01
2019-05-19T08:40:07.431Z,15.12
2019-05-19T08:41:07.431Z,15.25
2019-05-19T08:42:07.407Z,14.99
2019-05-19T08:43:07.399Z,15.19
2019-05-19T08:44:07.386Z,15.22
2019-05-19T08:45:07.387Z,15.25
2019-05-19T08:46:07.369Z,15.25
2019-05-19T08:47:07.352Z,15.36
2019-05-19T08:48:07.344Z,15.36
2019-05-19T08:49:07.333Z,15.51
2019-05-19T08:50:07.331Z,15.68
2019-05-19T08:51:07.307Z,15.85
2019-05-19T08:52:07.306Z,15.84
2019-05-19T08:53:07.289Z,15.99
2019-05-19T08:54:14.927Z,16.06
2019-05-19T08:55:08.266Z,16.13
2019-05-19T08:56:07.266Z,16.24
2019-05-19T08:57:07.254Z,16.28
2019-05-19T08:58:07.244Z,16.44
2019-05-19T08:59:07.224Z,16.59
2019-05-19T09:00:07.220Z,16.76
2019-05-19T09:01:07.199Z,16.64
2019-05-19T09:02:07.191Z,16.40
2019-05-19T09:03:07.176Z,16.40
2019-05-19T09:04:07.172Z,16.47
2019-05-19T09:05:07.177Z,16.52
2019-05-19T09:06:07.152Z,16.47
2019-05-19T09:07:07.128Z,16.40
2019-05-19T09:08:07.117Z,16.43
2019-05-19T09:09:07.118Z,16.42
2019-05-19T09:10:07.106Z,16.18
2019-05-19T09:11:07.084Z,15.99
2019-05-19T09:12:07.079Z,15.72
2019-05-19T09:13:07.070Z,15.51
2019-05-19T09:14:07.056Z,15.29
2019-05-19T09:15:07.049Z,15.17
2019-05-19T09:16:07.039Z,15.08
2019-05-19T09:17:07.033Z,15.12
2019-05-19T09:18:07.012Z,15.17
2019-05-19T09:19:07.007Z,15.10
2019-05-19T09:20:06.996Z,15.40
2019-05-19T09:21:06.973Z,15.62
2019-05-19T09:22:06.970Z,16.06
2019-05-19T09:23:06.962Z,16.03
2019-05-19T09:24:06.942Z,16.32
2019-05-19T09:25:06.936Z,16.72
2019-05-19T09:26:06.926Z,16.98
2019-05-19T09:27:06.914Z,17.12
2019-05-19T09:28:06.897Z,17.34
2019-05-19T09:29:06.892Z,17.57
2019-05-19T09:30:06.874Z,17.75
2019-05-19T09:31:06.869Z,17.91
2019-05-19T09:32:06.853Z,18.21
2019-05-19T09:33:06.845Z,18.48
2019-05-19T09:34:06.831Z,18.82
2019-05-19T09:35:06.821Z,18.81
2019-05-19T09:36:06.810Z,19.17
2019-05-19T09:37:06.810Z,19.30
2019-05-19T09:38:06.795Z,19.24
2019-05-19T09:39:06.781Z,19.31
2019-05-19T09:40:06.772Z,19.52
2019-05-19T09:41:06.778Z,19.27
2019-05-19T09:42:06.740Z,18.82
2019-05-19T09:43:06.736Z,18.08
2019-05-19T09:44:06.725Z,17.83
2019-05-19T09:45:06.718Z,17.81
2019-05-19T09:46:06.712Z,18.09
2019-05-19T09:47:06.688Z,18.34
2019-05-19T09:48:06.679Z,18.56
2019-05-19T09:49:06.674Z,19.01
2019-05-19T09:50:06.661Z,18.94
2019-05-19T09:51:06.648Z,19.09
2019-05-19T09:52:06.642Z,19.32
2019-05-19T09:53:06.621Z,19.30
2019-05-19T09:54:06.626Z,19.07
2019-05-19T09:55:06.607Z,19.32
2019-05-19T09:56:06.594Z,20.09
2019-05-19T09:57:06.585Z,19.42
2019-05-19T09:58:06.615Z,18.56
2019-05-19T09:59:06.567Z,18.12
2019-05-19T10:00:06.599Z,17.71
2019-05-19T10:01:06.575Z,17.34
2019-05-19T10:02:06.574Z,17.19
2019-05-19T10:03:06.545Z,17.19
2019-05-19T10:04:07.149Z,17.28
2019-05-19T10:05:06.519Z,17.34
2019-05-19T10:06:06.495Z,17.17
2019-05-19T10:07:07.259Z,16.87
2019-05-19T10:08:06.465Z,16.83
2019-05-19T10:09:06.463Z,16.46
2019-05-19T10:10:06.444Z,16.25
2019-05-19T10:11:06.429Z,16.13
2019-05-19T10:12:06.424Z,16.18
2019-05-19T10:13:06.410Z,16.06
2019-05-19T10:14:06.407Z,16.00
2019-05-19T10:15:06.394Z,15.99
2019-05-19T10:16:06.376Z,16.13
2019-05-19T10:17:06.405Z,16.17
2019-05-19T10:18:06.359Z,16.06
2019-05-19T10:19:06.343Z,16.21
2019-05-19T10:20:06.332Z,16.33
2019-05-19T10:21:06.324Z,16.58
2019-05-19T10:22:06.309Z,16.70
2019-05-19T10:23:06.299Z,16.94
2019-05-19T10:24:06.283Z,17.37
2019-05-19T10:25:20.878Z,18.39
2019-05-19T10:26:07.270Z,19.15
2019-05-19T10:27:06.258Z,19.67
2019-05-19T10:28:06.242Z,19.68
2019-05-19T10:29:06.237Z,19.09
2019-05-19T10:30:06.223Z,18.49
2019-05-19T10:31:06.218Z,18.27
2019-05-19T10:32:06.205Z,18.42
2019-05-19T10:33:06.192Z,18.39
2019-05-19T10:34:06.187Z,18.49
2019-05-19T10:35:06.172Z,18.41
2019-05-19T10:36:06.153Z,18.41
2019-05-19T10:37:06.149Z,18.23
2019-05-19T10:38:06.140Z,17.86
2019-05-19T10:39:06.124Z,17.41
2019-05-19T10:40:06.119Z,17.25
2019-05-19T10:41:06.115Z,17.32
2019-05-19T10:42:06.147Z,17.12
2019-05-19T10:43:06.081Z,17.07
2019-05-19T10:44:06.071Z,17.35
2019-05-19T10:45:06.077Z,17.68
2019-05-19T10:46:06.048Z,17.87
2019-05-19T10:47:06.190Z,18.17
2019-05-19T10:48:06.030Z,18.26
2019-05-19T10:49:06.018Z,18.49
2019-05-19T10:50:06.003Z,18.57
2019-05-19T10:51:05.990Z,18.27
2019-05-19T10:52:05.979Z,18.34
2019-05-19T10:53:05.970Z,18.39
2019-05-19T10:54:05.964Z,18.20
2019-05-19T10:55:05.958Z,17.97
2019-05-19T10:56:05.940Z,17.87
2019-05-19T10:57:05.952Z,17.96
2019-05-19T10:58:05.976Z,17.78
2019-05-19T10:59:05.912Z,17.66
2019-05-19T11:00:05.898Z,17.43
2019-05-19T11:01:05.890Z,17.19
2019-05-19T11:02:05.888Z,16.95
2019-05-19T11:03:05.869Z,16.74
2019-05-19T11:04:05.855Z,16.65
2019-05-19T11:05:05.874Z,16.58
2019-05-19T11:06:05.840Z,16.65
2019-05-19T11:07:05.820Z,16.72
2019-05-19T11:08:05.802Z,16.70
2019-05-19T11:09:05.799Z,16.51
2019-05-19T11:10:05.789Z,16.34
2019-05-19T11:11:05.772Z,16.09
2019-05-19T11:12:05.784Z,15.93
2019-05-19T11:13:05.751Z,15.99
2019-05-19T11:14:05.740Z,16.14
2019-05-19T11:15:05.786Z,16.24
2019-05-19T11:16:05.716Z,16.49
2019-05-19T11:17:05.716Z,16.43
2019-05-19T11:18:06.536Z,16.37
2019-05-19T11:19:05.692Z,16.36
2019-05-19T11:20:05.687Z,16.36
2019-05-19T11:21:05.668Z,16.33
2019-05-19T11:22:05.657Z,16.36
2019-05-19T11:23:05.653Z,16.29
2019-05-19T11:24:05.630Z,16.39
2019-05-19T11:25:05.616Z,16.58
2019-05-19T11:26:05.675Z,16.76
2019-05-19T11:27:05.595Z,16.97
2019-05-19T11:28:05.586Z,17.41
2019-05-19T11:29:05.581Z,18.02
2019-05-19T11:30:05.573Z,18.20
2019-05-19T11:31:05.553Z,18.48
2019-05-19T11:32:05.547Z,18.68
2019-05-19T11:33:05.530Z,18.81
2019-05-19T11:34:05.534Z,18.89
2019-05-19T11:35:05.516Z,19.01
2019-05-19T11:36:05.495Z,19.31
2019-05-19T11:37:07.477Z,19.31
2019-05-19T11:38:05.504Z,19.64
2019-05-19T11:39:05.467Z,19.01
2019-05-19T11:40:05.464Z,18.45
2019-05-19T11:41:05.443Z,18.28
2019-05-19T11:42:05.449Z,18.48
2019-05-19T11:43:05.424Z,18.38
2019-05-19T11:44:05.407Z,18.11
2019-05-19T11:45:05.399Z,17.99
2019-05-19T11:46:05.391Z,17.97
2019-05-19T11:47:05.393Z,17.86
2019-05-19T11:48:05.375Z,17.81
2019-05-19T11:49:05.362Z,17.78
2019-05-19T11:50:05.347Z,17.76
2019-05-19T11:51:05.329Z,17.83
2019-05-19T11:52:05.359Z,17.90
2019-05-19T11:53:05.313Z,17.87
2019-05-19T11:54:05.303Z,17.79
2019-05-19T11:55:05.294Z,17.79
2019-05-19T11:56:07.299Z,17.37
2019-05-19T11:57:06.270Z,17.09
2019-05-19T11:58:05.274Z,16.83
2019-05-19T11:59:05.248Z,16.55
2019-05-19T12:00:05.240Z,16.46
2019-05-19T12:01:05.230Z,16.36
2019-05-19T12:02:05.216Z,16.13
2019-05-19T12:03:05.203Z,15.91
2019-05-19T12:04:05.694Z,15.80
2019-05-19T12:05:05.185Z,15.70
2019-05-19T12:06:05.182Z,15.65
2019-05-19T12:07:05.158Z,15.52
2019-05-19T12:08:05.163Z,15.76
2019-05-19T12:09:05.137Z,16.14
2019-05-19T12:10:05.127Z,16.26
2019-05-19T12:11:05.110Z,16.09
2019-05-19T12:12:05.112Z,15.77
2019-05-19T12:13:05.100Z,16.10
2019-05-19T12:14:05.080Z,16.25
2019-05-19T12:15:05.073Z,16.26
2019-05-19T12:16:05.057Z,16.46
2019-05-19T12:17:05.057Z,16.54
2019-05-19T12:18:05.040Z,16.57
2019-05-19T12:19:05.027Z,16.39
2019-05-19T12:20:05.017Z,16.36
2019-05-19T12:21:05.011Z,16.52
2019-05-19T12:22:05.010Z,16.55
2019-05-19T12:23:04.994Z,16.74
2019-05-19T12:24:05.003Z,16.92
2019-05-19T12:25:04.956Z,16.76
2019-05-19T12:26:04.942Z,16.82
2019-05-19T12:27:04.932Z,16.94
2019-05-19T12:28:04.932Z,17.10
2019-05-19T12:29:04.912Z,16.97
2019-05-19T12:30:04.902Z,16.79
2019-05-19T12:31:04.889Z,16.70
2019-05-19T12:32:04.897Z,16.57
2019-05-19T12:33:04.868Z,16.54
2019-05-19T12:34:04.864Z,16.72
2019-05-19T12:35:04.845Z,16.80
2019-05-19T12:36:04.847Z,17.13
2019-05-19T12:37:04.831Z,17.39
2019-05-19T12:38:04.816Z,17.54
2019-05-19T12:39:04.804Z,17.68
2019-05-19T12:40:04.816Z,17.93
2019-05-19T12:41:04.775Z,17.86
2019-05-19T12:42:04.772Z,18.33
2019-05-19T12:43:04.775Z,18.67
2019-05-19T12:44:04.753Z,18.56
2019-05-19T12:45:04.732Z,18.75
2019-05-19T12:46:14.876Z,18.86
2019-05-19T12:47:05.706Z,19.34
2019-05-19T12:48:04.707Z,19.42
2019-05-19T12:49:04.701Z,19.74
2019-05-19T12:50:04.705Z,19.79
2019-05-19T12:51:04.672Z,19.94
2019-05-19T12:52:04.657Z,20.14
2019-05-19T12:53:04.662Z,20.17
2019-05-19T12:54:04.669Z,20.25